Time;durP1;ratioP1;P1;durP2;ratioP2;P2;SDS_P1;SDS_P2;PMS_P1;PMS_P2;Temp;Humidity;BMP_temperature;BMP_pressure;BME280_temperature;BME280_humidity;BME280_pressure;Samples;Min_cycle;Max_cycle;Signal;HPM_P1;HPM_P2
2022/08/12 00:44:54;;;;;;;5.72;5.22;;;18.40;99.90;;;;;;5063629;28;20468;-65
2022/08/12 00:47:20;;;;;;;6.25;5.63;;;18.30;99.90;;;;;;5069237;28;20550;-65
2022/08/12 00:49:50;;;;;;;7.72;5.70;;;18.30;99.90;;;;;;5069803;28;20052;-65
2022/08/12 00:52:17;;;;;;;6.05;5.55;;;18.20;99.90;;;;;;5065420;28;20078;-65
2022/08/12 00:54:46;;;;;;;8.25;6.85;;;18.20;99.90;;;;;;5067039;28;20482;-65
2022/08/12 00:57:19;;;;;;;9.82;8.88;;;18.10;99.90;;;;;;5070470;28;20386;-65
2022/08/12 01:00:13;;;;;;;12.40;9.00;;;18.10;99.90;;;;;;5069711;28;20525;-65
2022/08/12 01:02:41;;;;;;;9.23;8.38;;;18.00;99.90;;;;;;5058834;28;20048;-65
2022/08/12 01:13:34;;;;;;;9.27;8.48;;;17.90;99.90;;;;;;5069655;28;20041;-65
2022/08/12 01:16:03;;;;;;;11.20;9.38;;;17.80;99.90;;;;;;5069956;28;20033;-65
2022/08/12 01:18:33;;;;;;;10.65;9.57;;;17.70;99.90;;;;;;5069600;28;20043;-65
2022/08/12 01:21:08;;;;;;;11.10;9.23;;;17.70;99.90;;;;;;5073925;28;20056;-65
2022/08/12 01:23:54;;;;;;;10.40;9.40;;;17.60;99.90;;;;;;5072548;28;20039;-65
2022/08/12 01:26:22;;;;;;;11.23;9.70;;;17.60;99.90;;;;;;5055551;28;20036;-65
2022/08/12 01:28:53;;;;;;;10.73;9.63;;;17.50;99.90;;;;;;5058335;28;20090;-65
2022/08/12 01:31:20;;;;;;;10.88;9.77;;;17.40;99.90;;;;;;5072202;28;20068;-65
2022/08/12 01:34:05;;;;;;;10.60;9.52;;;17.40;99.90;;;;;;5071945;28;20040;-65
2022/08/12 01:36:58;;;;;;;10.65;9.75;;;17.40;99.90;;;;;;5072713;28;20040;-65
2022/08/12 01:39:46;;;;;;;9.90;9.00;;;17.40;99.90;;;;;;5067828;28;20082;-65
2022/08/12 01:42:15;;;;;;;10.02;9.13;;;17.30;99.90;;;;;;5069210;28;20032;-65
2022/08/12 01:44:41;;;;;;;10.32;9.43;;;17.30;99.90;;;;;;5072878;28;20494;-65
2022/08/12 01:47:41;;;;;;;10.45;9.45;;;17.30;99.90;;;;;;5069321;28;20043;-65
2022/08/12 01:50:41;;;;;;;9.43;8.63;;;17.30;99.90;;;;;;5067575;28;20462;-65
2022/08/12 01:53:10;;;;;;;11.50;8.38;;;17.30;99.90;;;;;;5065557;28;20050;-65
2022/08/12 01:55:39;;;;;;;9.70;8.80;;;17.30;99.90;;;;;;5069090;28;20048;-65
2022/08/12 01:59:45;;;;;;;10.10;9.10;;;17.30;99.90;;;;;;5072272;28;20037;-65
2022/08/12 02:01:23;;;;;;;8.75;7.93;;;17.20;99.90;;;;;;5056608;28;20139;-65
2022/08/12 02:13:26;;;;;;;8.85;8.00;;;17.20;99.90;;;;;;5073179;28;20044;-65
2022/08/12 02:16:33;;;;;;;9.00;8.23;;;17.20;99.90;;;;;;5069102;28;20048;-65
2022/08/12 02:19:23;;;;;;;8.60;7.80;;;17.20;99.90;;;;;;5062396;28;20048;-65
2022/08/12 02:22:28;;;;;;;8.25;7.45;;;17.20;99.90;;;;;;5069288;28;20044;-65
2022/08/12 02:25:12;;;;;;;8.93;7.03;;;17.20;99.90;;;;;;5068482;28;20043;-65
2022/08/12 02:27:47;;;;;;;8.48;7.68;;;17.20;99.90;;;;;;5070576;28;20533;-65
2022/08/12 02:30:18;;;;;;;8.98;8.10;;;17.20;99.90;;;;;;5070272;28;20044;-65
2022/08/12 02:32:45;;;;;;;8.90;8.00;;;17.10;99.90;;;;;;5071191;28;20041;-65
2022/08/12 02:35:18;;;;;;;9.30;8.30;;;17.20;99.90;;;;;;5071311;28;20056;-65
2022/08/12 02:37:46;;;;;;;9.40;8.07;;;17.20;99.90;;;;;;5068696;28;20112;-65
2022/08/12 02:40:13;;;;;;;9.00;8.02;;;17.20;99.90;;;;;;5070593;28;20481;-65
2022/08/12 02:42:57;;;;;;;9.57;8.30;;;17.20;99.90;;;;;;5052600;28;20045;-65
2022/08/12 02:45:40;;;;;;;9.02;7.50;;;17.20;99.90;;;;;;5070496;28;20032;-65
2022/08/12 02:48:08;;;;;;;8.38;7.53;;;17.10;99.90;;;;;;5071121;28;20079;-65
2022/08/12 02:50:41;;;;;;;9.45;8.52;;;17.10;99.90;;;;;;5067931;28;20041;-65
2022/08/12 02:53:08;;;;;;;8.90;8.18;;;17.10;99.90;;;;;;5085093;28;20486;-65
2022/08/12 02:55:35;;;;;;;8.73;7.90;;;17.10;99.90;;;;;;5069522;28;20079;-65
2022/08/12 02:58:04;;;;;;;8.90;8.10;;;17.10;99.90;;;;;;5071234;28;20041;-65
2022/08/12 03:00:30;;;;;;;8.07;7.28;;;17.10;99.90;;;;;;5060048;28;20072;-65
2022/08/12 03:02:59;;;;;;;9.88;8.02;;;17.10;99.90;;;;;;5066764;28;20036;-65
2022/08/12 03:05:26;;;;;;;11.57;8.45;;;17.00;99.90;;;;;;5069108;28;20086;-65
2022/08/12 03:07:55;;;;;;;8.63;7.70;;;17.10;99.90;;;;;;5070784;28;20064;-65
2022/08/12 03:10:23;;;;;;;9.32;8.38;;;17.10;99.90;;;;;;5052617;28;20093;-65
2022/08/12 03:12:53;;;;;;;10.05;8.75;;;17.00;99.90;;;;;;5068121;28;20401;-65
2022/08/12 03:15:22;;;;;;;10.02;8.98;;;17.10;99.90;;;;;;5070387;28;20052;-65
2022/08/12 03:17:56;;;;;;;9.82;8.88;;;17.00;99.90;;;;;;5066708;28;20402;-65
2022/08/12 03:20:22;;;;;;;8.73;8.02;;;17.00;99.90;;;;;;5067652;28;20036;-65
2022/08/12 03:22:50;;;;;;;9.93;8.93;;;17.00;99.90;;;;;;5069823;28;20044;-65
2022/08/12 03:25:17;;;;;;;10.07;9.10;;;17.00;99.90;;;;;;5069036;28;20040;-65
2022/08/12 03:27:48;;;;;;;11.55;9.32;;;16.90;99.90;;;;;;5066188;28;20036;-65
2022/08/12 03:30:18;;;;;;;11.60;9.50;;;16.90;99.90;;;;;;5065838;28;20087;-65
2022/08/12 03:32:47;;;;;;;10.75;9.75;;;16.90;99.90;;;;;;5065370;28;20032;-65
2022/08/12 03:35:23;;;;;;;10.15;9.38;;;16.80;99.90;;;;;;5058519;28;20093;-65
2022/08/12 03:37:50;;;;;;;10.63;9.43;;;16.70;99.90;;;;;;5067475;28;20040;-65
2022/08/12 03:41:33;;;;;;;10.25;9.25;;;16.60;99.90;;;;;;5067912;28;20398;-65
2022/08/12 04:02:24;;;;;;;9.45;8.52;;;16.60;99.90;;;;;;5066374;28;20123;-65
2022/08/12 04:04:50;;;;;;;9.35;8.45;;;16.60;99.90;;;;;;5046333;28;20358;-65
2022/08/12 04:07:16;;;;;;;11.15;8.75;;;16.60;99.90;;;;;;5062805;28;20029;-66
2022/08/12 04:09:43;;;;;;;10.32;9.07;;;16.60;99.90;;;;;;5068248;28;20105;-65
2022/08/12 04:14:56;;;;;;;9.85;8.70;;;16.60;99.90;;;;;;5068555;28;20444;-65
2022/08/12 04:17:22;;;;;;;10.18;8.70;;;16.60;99.90;;;;;;5066722;28;20044;-65
2022/08/12 04:19:48;;;;;;;10.15;8.38;;;16.60;99.90;;;;;;5066980;28;20043;-65
2022/08/12 04:22:15;;;;;;;11.52;8.95;;;16.60;99.90;;;;;;5065147;28;20041;-65
2022/08/12 04:24:41;;;;;;;11.45;8.90;;;16.60;99.90;;;;;;5063075;28;20040;-65
2022/08/12 04:27:09;;;;;;;10.68;9.63;;;16.50;99.90;;;;;;5066665;28;20032;-65
2022/08/12 04:29:36;;;;;;;12.88;9.73;;;16.50;99.90;;;;;;5067330;28;20048;-65
2022/08/12 04:32:02;;;;;;;12.27;9.52;;;16.50;99.90;;;;;;5069996;28;20107;-65
2022/08/12 04:34:27;;;;;;;9.95;8.93;;;16.40;99.90;;;;;;5070517;28;20155;-65
2022/08/12 04:36:53;;;;;;;12.75;9.75;;;16.40;99.90;;;;;;5070501;28;20478;-65
2022/08/12 04:39:21;;;;;;;10.90;9.30;;;16.30;99.90;;;;;;5053853;28;20051;-65
2022/08/12 04:41:48;;;;;;;9.63;8.63;;;16.30;99.90;;;;;;5069653;28;20051;-65
2022/08/12 04:44:14;;;;;;;10.30;9.30;;;16.40;99.90;;;;;;5070638;28;20044;-65
2022/08/12 04:46:40;;;;;;;11.52;8.77;;;16.40;99.90;;;;;;5070374;28;20103;-65
2022/08/12 04:49:05;;;;;;;9.73;8.82;;;16.40;99.90;;;;;;5073368;28;20071;-65
2022/08/12 04:51:33;;;;;;;10.05;8.73;;;16.40;99.90;;;;;;5072330;28;20041;-65
2022/08/12 04:54:00;;;;;;;9.80;8.65;;;16.40;99.90;;;;;;5071728;28;20037;-65
2022/08/12 04:56:27;;;;;;;12.30;9.98;;;16.50;99.90;;;;;;5071356;28;20721;-65
2022/08/12 04:58:54;;;;;;;12.85;10.00;;;16.50;99.90;;;;;;5067925;28;20040;-65
2022/08/12 05:01:19;;;;;;;12.02;9.90;;;16.60;99.90;;;;;;5071314;28;20044;-65
2022/08/12 05:03:47;;;;;;;11.38;10.18;;;16.60;99.90;;;;;;5070180;28;20037;-65
2022/08/12 05:06:13;;;;;;;11.15;10.00;;;16.60;99.90;;;;;;5066893;28;20076;-65
2022/08/12 05:08:38;;;;;;;10.50;9.40;;;16.70;99.90;;;;;;5069627;28;20083;-65
2022/08/12 05:11:04;;;;;;;13.60;9.45;;;16.80;99.90;;;;;;5072580;28;20036;-65
2022/08/12 05:13:39;;;;;;;10.20;8.25;;;16.90;99.90;;;;;;5072580;28;20047;-65
2022/08/12 05:16:06;;;;;;;10.20;8.82;;;16.90;99.90;;;;;;5067470;28;20043;-65
2022/08/12 05:18:39;;;;;;;9.52;8.52;;;17.00;99.90;;;;;;5068580;28;20048;-65
2022/08/12 05:21:06;;;;;;;9.32;8.38;;;17.00;99.90;;;;;;5072466;28;20068;-65
2022/08/12 05:23:34;;;;;;;9.00;8.15;;;17.10;99.90;;;;;;5040319;22;20060;-65
2022/08/12 05:26:00;;;;;;;11.68;8.32;;;17.10;99.90;;;;;;5011937;28;20150;-64
2022/08/12 05:28:27;;;;;;;9.10;7.32;;;17.20;99.90;;;;;;5010511;28;20077;-65
2022/08/12 05:30:54;;;;;;;9.13;7.53;;;17.30;99.90;;;;;;5011020;28;20387;-65
2022/08/12 05:33:21;;;;;;;8.27;7.35;;;17.40;99.90;;;;;;5010071;28;20567;-65
2022/08/12 05:35:48;;;;;;;7.28;6.55;;;17.40;99.90;;;;;;5011009;28;20117;-65
2022/08/12 05:41:03;;;;;;;9.23;6.70;;;17.50;99.90;;;;;;5003576;28;20043;-64
2022/08/12 05:43:28;;;;;;;8.02;6.40;;;17.60;99.90;;;;;;5001038;28;20041;-65
2022/08/12 05:45:54;;;;;;;8.68;5.88;;;17.70;99.90;;;;;;5001144;28;20123;-64
2022/08/12 05:48:20;;;;;;;7.55;6.57;;;17.80;99.90;;;;;;5012031;28;20029;-65
2022/08/12 05:50:47;;;;;;;8.25;5.28;;;17.90;99.90;;;;;;5009796;28;20045;-65
2022/08/12 05:53:13;;;;;;;7.93;5.95;;;18.00;99.90;;;;;;5003814;28;20069;-65
2022/08/12 05:55:39;;;;;;;6.95;5.05;;;18.30;99.90;;;;;;5006915;28;20445;-64
2022/08/12 05:58:06;;;;;;;7.95;5.13;;;19.60;99.90;;;;;;5017692;28;20030;-65
2022/08/12 06:00:33;;;;;;;5.35;4.68;;;21.00;99.90;;;;;;5005466;28;20373;-66
2022/08/12 06:03:00;;;;;;;8.10;4.97;;;22.50;99.90;;;;;;5012434;28;20543;-65
2022/08/12 06:05:33;;;;;;;10.20;4.68;;;24.00;99.90;;;;;;5008147;28;20049;-66
2022/08/12 06:07:59;;;;;;;4.93;4.35;;;25.20;95.40;;;;;;5008489;28;20758;-65
2022/08/12 06:10:25;;;;;;;6.53;4.45;;;26.00;94.70;;;;;;5006257;28;20045;-66
2022/08/12 06:12:51;;;;;;;5.13;4.57;;;26.10;96.30;;;;;;5013245;28;20042;-65
2022/08/12 06:15:17;;;;;;;5.30;4.15;;;26.80;95.10;;;;;;5011646;28;20128;-66
2022/08/12 06:17:43;;;;;;;4.50;3.85;;;27.60;91.40;;;;;;5010739;28;20042;-66
2022/08/12 06:20:12;;;;;;;4.72;4.00;;;28.00;92.80;;;;;;5021774;28;20482;-66
2022/08/12 06:22:38;;;;;;;4.15;3.75;;;28.70;88.20;;;;;;5015744;28;20088;-65
2022/08/12 06:25:05;;;;;;;5.22;4.18;;;28.80;90.30;;;;;;5022337;28;20123;-66
2022/08/12 06:27:31;;;;;;;5.13;3.72;;;29.40;86.70;;;;;;5032219;28;20442;-66
2022/08/12 06:29:57;;;;;;;5.30;4.03;;;29.30;86.40;;;;;;5022850;28;20042;-65
2022/08/12 06:32:23;;;;;;;5.00;4.35;;;29.90;87.50;;;;;;5034306;28;20044;-66
2022/08/12 06:34:49;;;;;;;4.13;3.58;;;30.20;84.70;;;;;;5009327;28;20045;-66
2022/08/12 06:37:16;;;;;;;5.40;3.70;;;29.80;82.50;;;;;;5031383;28;20045;-66
2022/08/12 06:39:42;;;;;;;5.55;3.47;;;29.40;80.80;;;;;;5023307;28;20384;-66
2022/08/12 06:44:52;;;;;;;3.88;3.25;;;31.00;80.60;;;;;;5031091;28;20041;-65
2022/08/12 06:47:18;;;;;;;4.93;3.00;;;31.60;79.00;;;;;;5029924;28;20506;-66
2022/08/12 06:49:44;;;;;;;5.95;3.10;;;31.80;76.80;;;;;;5031379;28;20047;-65
2022/08/12 06:52:09;;;;;;;4.57;3.15;;;32.10;76.00;;;;;;5010012;28;20050;-66
2022/08/12 06:54:35;;;;;;;3.22;3.03;;;31.90;74.10;;;;;;5013676;28;20052;-66
2022/08/12 06:57:01;;;;;;;3.20;2.90;;;32.10;73.20;;;;;;5012052;28;20041;-66
2022/08/12 06:59:27;;;;;;;3.60;3.20;;;;;;;;;;5027608;28;20045;-66
2022/08/12 07:01:54;;;;;;;4.93;2.90;;;32.90;73.00;;;;;;5023386;28;20376;-66
2022/08/12 07:04:20;;;;;;;4.60;2.88;;;33.10;71.40;;;;;;5031202;28;20116;-65
2022/08/12 07:06:45;;;;;;;7.18;2.85;;;32.40;70.20;;;;;;5012305;28;20045;-66
2022/08/12 07:09:13;;;;;;;3.15;2.80;;;32.40;70.50;;;;;;5027969;28;20049;-66
2022/08/12 07:11:42;;;;;;;5.97;3.10;;;32.80;70.70;;;;;;5013556;28;20068;-66
2022/08/12 07:14:08;;;;;;;3.45;3.15;;;31.30;69.10;;;;;;5029441;28;20056;-66
2022/08/12 07:16:52;;;;;;;5.90;2.53;;;31.10;70.50;;;;;;5022244;28;20124;-66
2022/08/12 07:19:19;;;;;;;6.43;3.35;;;31.80;70.30;;;;;;5031732;28;20128;-67
2022/08/12 07:21:45;;;;;;;3.70;2.58;;;30.90;69.50;;;;;;5031836;28;20425;-65
2022/08/12 07:24:11;;;;;;;7.78;3.15;;;31.20;70.70;;;;;;5032312;28;20411;-66
2022/08/12 07:26:40;;;;;;;2.65;2.40;;;31.90;67.90;;;;;;5028115;28;20049;-66
2022/08/12 07:29:08;;;;;;;4.15;3.03;;;32.10;69.00;;;;;;5030426;28;20053;-66
2022/08/12 07:31:37;;;;;;;4.05;2.47;;;32.80;68.10;;;;;;5030477;28;20125;-66
2022/08/12 07:34:04;;;;;;;5.78;2.65;;;33.20;68.60;;;;;;5031002;28;20041;-66
2022/08/12 07:36:32;;;;;;;4.50;2.97;;;33.70;67.10;;;;;;5013886;28;20525;-66
2022/08/12 07:38:58;;;;;;;4.13;2.80;;;32.50;64.70;;;;;;5031151;28;20077;-65
2022/08/12 07:41:28;;;;;;;3.50;2.50;;;32.00;66.50;;;;;;5012345;28;20051;-66
2022/08/12 07:43:57;;;;;;;5.72;3.00;;;32.00;65.60;;;;;;5012504;28;20033;-66
2022/08/12 07:46:27;;;;;;;3.65;2.83;;;33.10;66.30;;;;;;5029558;28;20044;-66
2022/08/12 07:48:58;;;;;;;3.67;2.63;;;33.30;65.00;;;;;;5029444;28;20041;-66
2022/08/12 07:51:24;;;;;;;4.90;2.95;;;32.60;65.60;;;;;;5027178;28;20045;-66
2022/08/12 07:53:50;;;;;;;6.30;2.92;;;32.90;65.40;;;;;;5011727;28;20053;-66
2022/08/12 07:56:17;;;;;;;4.43;2.78;;;32.80;65.00;;;;;;5026576;28;20357;-65
2022/08/12 07:58:43;;;;;;;4.25;2.50;;;32.90;64.70;;;;;;5012386;28;20029;-65
2022/08/12 08:01:14;;;;;;;3.38;2.45;;;32.60;65.50;;;;;;5025164;28;20570;-65
2022/08/12 08:04:54;;;;;;;6.32;2.80;;;32.40;65.70;;;;;;5029708;28;20056;-65
2022/08/12 08:06:26;;;;;;;5.75;2.40;;;30.90;64.80;;;;;;5036972;28;20050;-66
2022/08/12 08:08:55;;;;;;;2.92;2.15;;;30.30;68.30;;;;;;5017780;28;20056;-66
2022/08/12 08:14:07;;;;;;;5.43;2.67;;;28.80;69.60;;;;;;5018434;28;20057;-66
2022/08/12 08:16:35;;;;;;;3.95;2.53;;;28.50;70.90;;;;;;5036770;28;20042;-66
2022/08/12 08:19:01;;;;;;;5.32;2.80;;;28.20;71.70;;;;;;5019743;28;20077;-66
2022/08/12 08:21:31;;;;;;;4.60;2.40;;;27.80;72.20;;;;;;5037646;28;20065;-66
2022/08/12 08:24:15;;;;;;;3.55;2.78;;;27.80;73.00;;;;;;5014136;28;20541;-66
2022/08/12 08:26:47;;;;;;;6.18;2.78;;;27.70;72.90;;;;;;5036936;28;20454;-65
2022/08/12 08:29:14;;;;;;;4.03;2.80;;;27.30;72.00;;;;;;5035152;28;20046;-65
2022/08/12 08:31:42;;;;;;;3.13;2.50;;;27.40;74.20;;;;;;5030777;28;20144;-66
2022/08/12 08:34:12;;;;;;;3.55;2.58;;;27.50;74.60;;;;;;5002479;28;20038;-65
2022/08/12 08:36:38;;;;;;;6.55;2.33;;;27.60;73.70;;;;;;5033776;28;20496;-65
2022/08/12 08:39:09;;;;;;;5.57;2.50;;;27.50;73.10;;;;;;5033192;28;20038;-65
2022/08/12 08:44:19;;;;;;;10.98;2.80;;;27.60;73.70;;;;;;5035772;28;20124;-66
2022/08/12 08:46:45;;;;;;;5.88;2.53;;;27.70;73.00;;;;;;5037356;28;20519;-65
2022/08/12 08:49:11;;;;;;;7.97;2.72;;;27.70;72.50;;;;;;5034453;28;20096;-65
2022/08/12 08:51:38;;;;;;;5.25;2.25;;;27.70;72.50;;;;;;5019024;28;20040;-65
2022/08/12 08:54:05;;;;;;;3.75;2.20;;;27.70;73.80;;;;;;5002890;28;20052;-65
2022/08/12 08:56:32;;;;;;;8.07;2.70;;;27.70;71.90;;;;;;5019471;28;20075;-66
2022/08/12 08:58:58;;;;;;;3.30;2.40;;;27.70;71.20;;;;;;5019132;28;20152;-66
2022/08/12 09:01:24;;;;;;;2.30;2.10;;;27.70;72.30;;;;;;5022112;28;20029;-64
2022/08/12 09:03:50;;;;;;;4.55;2.85;;;27.80;72.10;;;;;;5033877;28;20033;-67
2022/08/12 09:06:16;;;;;;;9.77;2.72;;;27.80;71.30;;;;;;5009096;28;20140;-67
2022/08/12 09:08:42;;;;;;;4.90;2.70;;;27.90;70.20;;;;;;5013380;28;20853;-67
2022/08/12 09:13:53;;;;;;;4.93;2.45;;;28.00;73.00;;;;;;5019257;28;20049;-67
2022/08/12 09:16:19;;;;;;;5.25;2.42;;;28.10;71.80;;;;;;5011471;28;20116;-67
2022/08/12 09:18:45;;;;;;;3.83;2.60;;;28.20;71.20;;;;;;5031144;28;20108;-67
2022/08/12 09:21:12;;;;;;;3.47;1.90;;;28.20;71.40;;;;;;5014978;28;20033;-67
2022/08/12 09:23:37;;;;;;;5.03;2.30;;;28.30;72.00;;;;;;5033499;28;20060;-67
2022/08/12 09:26:03;;;;;;;4.88;2.60;;;28.50;72.00;;;;;;5014043;28;20030;-67
2022/08/12 09:28:31;;;;;;;6.70;2.58;;;28.60;69.60;;;;;;5017808;28;20037;-67
2022/08/12 09:30:57;;;;;;;4.05;2.60;;;28.70;70.60;;;;;;5015800;28;20034;-67
2022/08/12 09:33:29;;;;;;;3.10;2.20;;;28.80;68.50;;;;;;5013546;28;20037;-67
2022/08/12 09:35:56;;;;;;;3.85;2.50;;;28.80;68.20;;;;;;5013524;28;20099;-67
2022/08/12 09:38:23;;;;;;;3.65;2.42;;;28.80;67.60;;;;;;4997792;28;20422;-67
2022/08/12 09:40:49;;;;;;;4.97;2.22;;;28.90;68.20;;;;;;5013049;28;20045;-67
2022/08/12 09:46:02;;;;;;;2.92;2.38;;;29.10;69.20;;;;;;5033344;28;20475;-67
2022/08/12 09:48:28;;;;;;;7.80;2.30;;;29.10;68.50;;;;;;4999193;28;20069;-67
2022/08/12 09:50:54;;;;;;;5.28;2.70;;;29.20;69.30;;;;;;5015358;28;20043;-67
2022/08/12 09:53:23;;;;;;;4.78;2.80;;;29.20;67.90;;;;;;5010167;28;20560;-63
2022/08/12 09:55:56;;;;;;;2.47;2.08;;;29.30;66.00;;;;;;5033151;28;20100;-64
2022/08/12 09:58:27;;;;;;;5.95;2.47;;;29.60;65.70;;;;;;5032566;28;20099;-64
2022/08/12 10:00:55;;;;;;;4.63;2.50;;;29.60;64.90;;;;;;5031361;28;20037;-63
2022/08/12 10:03:24;;;;;;;4.93;2.33;;;29.60;65.10;;;;;;5008122;28;20057;-63
2022/08/12 10:05:50;;;;;;;3.78;2.50;;;29.70;66.60;;;;;;5031349;28;20041;-65
2022/08/12 10:08:17;;;;;;;5.57;2.60;;;29.50;63.90;;;;;;5031458;28;20087;-65
2022/08/12 10:13:43;;;;;;;5.85;2.40;;;29.70;62.90;;;;;;5040260;28;20044;-65
2022/08/12 10:16:18;;;;;;;6.40;2.85;;;29.90;64.20;;;;;;5015087;28;20127;-65
2022/08/12 10:18:52;;;;;;;4.35;2.45;;;29.90;60.00;;;;;;5013824;28;20049;-66
2022/08/12 10:21:25;;;;;;;3.78;2.45;;;30.00;64.50;;;;;;5030013;28;20112;-64
2022/08/12 10:23:53;;;;;;;5.43;2.80;;;30.10;63.10;;;;;;5029832;28;20058;-64
2022/08/12 10:31:52;;;;;;;3.80;2.20;;;30.30;59.20;;;;;;5023722;28;20046;-66
2022/08/12 10:34:21;;;;;;;6.10;2.05;;;30.20;56.80;;;;;;5030917;28;20043;-65
2022/08/12 10:36:48;;;;;;;2.30;1.95;;;30.30;57.70;;;;;;5041129;28;20050;-65
2022/08/12 10:39:16;;;;;;;2.40;2.05;;;30.40;62.30;;;;;;5031220;28;20049;-65
2022/08/12 10:44:27;;;;;;;3.08;1.95;;;30.60;62.80;;;;;;5029041;28;20050;-65
2022/08/12 10:46:54;;;;;;;5.18;2.15;;;30.50;59.00;;;;;;5017018;28;20069;-65
2022/08/12 10:49:24;;;;;;;2.83;2.03;;;30.60;58.40;;;;;;5030310;28;20554;-65
2022/08/12 10:51:50;;;;;;;3.47;2.10;;;30.80;62.70;;;;;;5030955;28;20048;-66
2022/08/12 10:54:17;;;;;;;4.88;2.33;;;30.60;57.40;;;;;;5030336;28;20726;-65
2022/08/12 10:56:47;;;;;;;3.40;1.92;;;30.60;55.30;;;;;;5035382;28;20505;-65
2022/08/12 10:59:14;;;;;;;3.17;2.05;;;30.50;57.40;;;;;;5026082;28;20111;-65
2022/08/12 11:01:41;;;;;;;2.35;1.80;;;30.60;58.50;;;;;;5036990;28;20441;-64
2022/08/12 11:04:12;;;;;;;4.13;2.10;;;30.70;62.00;;;;;;5010410;28;20041;-65
2022/08/12 11:06:46;;;;;;;5.57;2.10;;;30.60;55.30;;;;;;5032060;28;20045;-65
2022/08/12 11:09:16;;;;;;;5.95;1.95;;;30.80;57.40;;;;;;5026408;28;20045;-70
2022/08/12 11:11:47;;;;;;;3.10;1.90;;;30.80;58.90;;;;;;5024048;28;20037;-70
2022/08/12 11:14:17;;;;;;;3.97;1.90;;;30.80;59.20;;;;;;5012749;28;20041;-70
2022/08/12 11:16:45;;;;;;;2.72;1.92;;;31.00;61.30;;;;;;5027984;28;20475;-70
2022/08/12 11:19:12;;;;;;;5.05;2.00;;;30.80;57.80;;;;;;5027581;28;20764;-69
2022/08/12 11:21:38;;;;;;;3.95;2.15;;;30.70;57.50;;;;;;5028597;28;20036;-69
2022/08/12 11:24:05;;;;;;;3.70;2.22;;;30.70;57.60;;;;;;5020739;28;20062;-69
2022/08/12 11:26:31;;;;;;;3.30;2.03;;;30.50;55.70;;;;;;5008660;28;20038;-69
2022/08/12 11:28:56;;;;;;;2.08;1.88;;;30.80;59.70;;;;;;5010952;28;20095;-69
2022/08/12 11:31:22;;;;;;;2.40;1.98;;;30.90;59.10;;;;;;5011808;28;20481;-69
2022/08/12 11:33:48;;;;;;;5.22;2.00;;;30.90;56.40;;;;;;5029159;28;20037;-69
2022/08/12 11:36:15;;;;;;;3.83;1.92;;;31.00;60.30;;;;;;5031046;28;20128;-69
2022/08/12 11:38:40;;;;;;;6.50;2.05;;;30.80;57.00;;;;;;5028864;28;20052;-69
2022/08/12 11:41:06;;;;;;;3.95;2.25;;;30.80;55.20;;;;;;5030056;28;20037;-69
2022/08/12 11:43:32;;;;;;;3.75;2.10;;;30.80;56.50;;;;;;5029786;28;20038;-69
2022/08/12 11:45:58;;;;;;;3.10;1.80;;;31.00;58.50;;;;;;5026738;28;20051;-69
2022/08/12 11:48:24;;;;;;;3.33;1.80;;;31.00;59.20;;;;;;5029042;28;20025;-69
2022/08/12 11:50:50;;;;;;;3.45;1.98;;;31.20;61.00;;;;;;5012243;28;20073;-70
2022/08/12 11:53:16;;;;;;;4.68;1.70;;;31.30;57.90;;;;;;5020584;28;20131;-70
2022/08/12 11:55:41;;;;;;;4.03;1.60;;;31.30;58.30;;;;;;5029082;28;20037;-70
2022/08/12 11:58:07;;;;;;;3.28;1.80;;;31.30;54.20;;;;;;5010231;28;20556;-70
2022/08/12 12:00:33;;;;;;;3.95;1.85;;;31.20;58.10;;;;;;5010770;28;20456;-70
2022/08/12 12:02:58;;;;;;;3.08;1.83;;;31.20;56.20;;;;;;5031604;28;20045;-70
2022/08/12 12:05:24;;;;;;;2.15;1.52;;;31.30;58.70;;;;;;5029132;28;20084;-70
2022/08/12 12:07:50;;;;;;;2.10;1.70;;;31.30;53.30;;;;;;5004710;28;20088;-70
2022/08/12 12:10:18;;;;;;;4.95;1.70;;;31.30;58.80;;;;;;5026841;28;20072;-70
2022/08/12 12:12:44;;;;;;;2.65;1.75;;;31.40;53.50;;;;;;4992491;28;20096;-70
2022/08/12 12:15:10;;;;;;;2.67;1.60;;;31.40;53.00;;;;;;5008515;28;20498;-70
2022/08/12 12:17:38;;;;;;;2.92;1.48;;;31.40;53.90;;;;;;5029781;28;20045;-71
2022/08/12 12:20:09;;;;;;;2.22;1.40;;;31.70;59.20;;;;;;5010341;28;20083;-71
2022/08/12 12:22:39;;;;;;;5.32;1.77;;;31.60;51.00;;;;;;5012241;28;20049;-71
2022/08/12 12:25:08;;;;;;;3.20;1.90;;;31.50;54.10;;;;;;5027672;28;20092;-71
2022/08/12 12:27:52;;;;;;;4.82;1.77;;;31.60;57.40;;;;;;5011209;28;20053;-71
2022/08/12 12:30:19;;;;;;;4.05;1.60;;;31.70;56.70;;;;;;5027134;28;20990;-71
2022/08/12 12:32:45;;;;;;;2.45;1.73;;;31.60;55.30;;;;;;5025513;28;20035;-71
2022/08/12 12:35:11;;;;;;;2.78;1.92;;;31.50;51.20;;;;;;5029894;28;20374;-71
2022/08/12 12:37:54;;;;;;;2.58;2.00;;;31.50;54.60;;;;;;5028508;28;20045;-72
2022/08/12 12:40:20;;;;;;;5.13;1.90;;;31.40;52.00;;;;;;5018834;28;20037;-72
2022/08/12 12:42:46;;;;;;;2.42;1.90;;;31.30;53.40;;;;;;5029815;28;20042;-71
2022/08/12 12:45:12;;;;;;;3.03;1.75;;;31.20;52.60;;;;;;5010333;28;20075;-71
2022/08/12 12:48:03;;;;;;;4.05;1.80;;;31.50;54.10;;;;;;5028213;28;20049;-71
2022/08/12 12:50:31;;;;;;;3.20;1.80;;;31.60;51.80;;;;;;5005996;28;20057;-72
2022/08/12 12:52:57;;;;;;;2.97;1.60;;;31.30;50.40;;;;;;5015021;28;20049;-72
2022/08/12 12:55:23;;;;;;;3.83;1.98;;;31.50;55.00;;;;;;5014864;28;20041;-72
2022/08/12 12:57:50;;;;;;;2.33;1.63;;;31.60;57.20;;;;;;5032527;28;20099;-72
2022/08/12 13:00:17;;;;;;;2.88;1.58;;;31.70;54.90;;;;;;5031403;28;20049;-72
2022/08/12 13:02:51;;;;;;;2.80;1.90;;;31.80;56.50;;;;;;5018818;28;20501;-72
2022/08/12 13:05:24;;;;;;;2.90;1.58;;;31.80;52.30;;;;;;5011769;28;20474;-71
2022/08/12 13:07:55;;;;;;;3.22;1.67;;;31.60;50.40;;;;;;5027617;28;20041;-72
2022/08/12 13:10:22;;;;;;;4.03;2.03;;;31.60;52.00;;;;;;5033212;28;20033;-71
2022/08/12 13:12:48;;;;;;;3.45;1.73;;;31.60;54.80;;;;;;5031313;28;20534;-71
2022/08/12 13:15:14;;;;;;;1.77;1.67;;;31.70;55.80;;;;;;5011171;28;20060;-71
2022/08/12 13:17:49;;;;;;;2.10;1.75;;;31.80;56.00;;;;;;5028684;28;20128;-71
2022/08/12 13:20:16;;;;;;;4.10;2.00;;;32.00;54.00;;;;;;5013168;28;20128;-72
2022/08/12 13:22:43;;;;;;;2.97;1.83;;;32.00;57.20;;;;;;5020953;28;20060;-71
2022/08/12 13:25:10;;;;;;;3.05;1.80;;;31.80;55.20;;;;;;5030294;28;20509;-72
2022/08/12 13:27:44;;;;;;;2.38;2.17;;;31.90;55.50;;;;;;5013160;28;20033;-72
2022/08/12 13:30:16;;;;;;;4.28;2.20;;;31.80;55.30;;;;;;4995120;28;20045;-71
2022/08/12 13:32:49;;;;;;;2.42;1.83;;;31.90;51.50;;;;;;4997062;28;20132;-72
2022/08/12 13:35:16;;;;;;;4.53;2.15;;;31.80;51.70;;;;;;5011609;28;20037;-68
2022/08/12 13:37:52;;;;;;;4.75;1.92;;;31.90;55.00;;;;;;5013190;28;20045;-68
2022/08/12 13:40:29;;;;;;;2.88;1.80;;;32.00;53.80;;;;;;5028472;28;20487;-68
2022/08/12 13:43:00;;;;;;;4.82;2.17;;;32.10;53.40;;;;;;5013143;28;20072;-68
2022/08/12 13:45:27;;;;;;;5.03;2.03;;;32.10;54.20;;;;;;5029675;28;20039;-67
2022/08/12 13:47:56;;;;;;;2.67;1.80;;;31.90;52.50;;;;;;5026185;28;20091;-67
2022/08/12 13:50:28;;;;;;;4.93;2.10;;;31.80;50.70;;;;;;5019112;28;20562;-66
2022/08/12 13:52:53;;;;;;;2.15;1.88;;;32.00;57.00;;;;;;5015013;28;20593;-67
2022/08/12 13:55:24;;;;;;;2.97;1.75;;;31.90;52.10;;;;;;5016567;28;20056;-67
2022/08/12 13:57:50;;;;;;;5.80;2.15;;;31.90;52.70;;;;;;5017146;28;20140;-67
2022/08/12 14:00:16;;;;;;;2.97;1.88;;;32.00;55.40;;;;;;5037688;28;20041;-67
2022/08/12 14:02:42;;;;;;;6.05;2.13;;;32.10;54.90;;;;;;5010979;28;20446;-67
2022/08/12 14:05:08;;;;;;;4.22;2.10;;;32.20;54.70;;;;;;5038817;28;20039;-67
2022/08/12 14:08:00;;;;;;;2.55;1.63;;;32.20;54.60;;;;;;5043724;28;20067;-67
2022/08/12 14:10:36;;;;;;;4.18;2.00;;;32.20;53.30;;;;;;5030156;28;20041;-67
2022/08/12 14:13:06;;;;;;;5.47;1.77;;;32.20;50.50;;;;;;5014611;28;20409;-67
2022/08/12 14:15:33;;;;;;;3.83;2.20;;;32.20;54.10;;;;;;5014308;28;20091;-67
2022/08/12 14:18:17;;;;;;;3.05;2.22;;;32.20;53.40;;;;;;5033644;28;20044;-67
2022/08/12 14:20:45;;;;;;;2.88;2.00;;;32.30;52.30;;;;;;5027777;28;20172;-67
2022/08/12 14:23:12;;;;;;;3.97;2.30;;;32.40;56.90;;;;;;5025531;28;20857;-67
2022/08/12 14:25:42;;;;;;;5.50;2.40;;;32.40;56.70;;;;;;5031840;28;20116;-67
2022/08/12 14:28:10;;;;;;;3.92;2.22;;;32.20;52.70;;;;;;5024963;28;20049;-67
2022/08/12 14:30:44;;;;;;;2.33;2.00;;;32.00;52.40;;;;;;5006405;28;20119;-67
2022/08/12 14:33:14;;;;;;;2.45;2.10;;;32.30;57.00;;;;;;5027888;28;20111;-67
2022/08/12 14:35:43;;;;;;;5.18;2.10;;;32.20;55.20;;;;;;5006127;28;20045;-67
2022/08/12 14:38:12;;;;;;;4.93;2.40;;;32.20;56.80;;;;;;5012970;28;20098;-67
2022/08/12 14:40:39;;;;;;;5.93;1.80;;;32.10;52.20;;;;;;5013571;28;20521;-67
2022/08/12 14:43:05;;;;;;;4.95;2.33;;;32.00;51.30;;;;;;5032677;28;20520;-67
2022/08/12 14:45:30;;;;;;;5.55;2.08;;;32.10;56.90;;;;;;4994555;28;20132;-67
2022/08/12 14:47:57;;;;;;;3.65;2.30;;;32.20;56.00;;;;;;5027153;28;20595;-67